Time;durP1;ratioP1;P1;durP2;ratioP2;P2;SDS_P1;SDS_P2;PMS_P1;PMS_P2;Temp;Humidity;BMP_temperature;BMP_pressure;BME280_temperature;BME280_humidity;BME280_pressure;Samples;Min_cycle;Max_cycle;Signal;HPM_P1;HPM_P2
2023/11/17 00:02:24;;;;;;;12.43;5.00;;;;;;;11.79;91.03;101462.81;4968139;28;20058;-69
2023/11/17 00:04:51;;;;;;;9.48;4.50;;;;;;;11.34;90.08;101484.53;4936803;29;20056;-68
2023/11/17 00:07:19;;;;;;;13.52;5.43;;;;;;;11.82;94.32;101474.09;4937723;29;20073;-68
2023/11/17 00:09:46;;;;;;;13.43;5.38;;;;;;;12.25;89.78;101471.91;4937173;29;20063;-68
2023/11/17 00:12:14;;;;;;;8.30;3.30;;;;;;;12.51;87.57;101470.28;4937746;29;20066;-68
2023/11/17 00:14:42;;;;;;;7.43;3.20;;;;;;;11.79;84.87;101466.41;4938502;29;20054;-69
2023/11/17 00:17:10;;;;;;;7.05;3.20;;;;;;;11.97;87.80;101481.28;4937306;29;20070;-68
2023/11/17 00:19:38;;;;;;;9.38;3.00;;;;;;;11.69;88.31;101487.84;4936766;29;20047;-67
2023/11/17 00:22:05;;;;;;;10.23;2.78;;;;;;;11.34;93.04;101491.97;4951215;29;20052;-68
2023/11/17 00:24:32;;;;;;;8.00;2.80;;;;;;;12.17;90.39;101480.88;4937308;29;20062;-68
2023/11/17 00:27:00;;;;;;;5.65;2.70;;;;;;;12.53;88.17;101479.06;4937206;29;20043;-67
2023/11/17 00:29:27;;;;;;;5.55;2.70;;;;;;;12.15;86.22;101469.34;4936757;29;20043;-67
2023/11/17 00:31:55;;;;;;;6.65;2.53;;;;;;;11.90;84.83;101480.84;4935902;29;20059;-68
2023/11/17 00:34:22;;;;;;;4.70;2.00;;;;;;;11.90;86.59;101478.94;4967908;28;20050;-68
2023/11/17 00:36:52;;;;;;;7.63;2.40;;;;;;;11.51;89.42;101481.22;4946552;29;20546;-69
2023/11/17 00:39:21;;;;;;;7.10;2.25;;;;;;;11.40;88.70;101485.28;4951228;29;20047;-68
2023/11/17 00:41:48;;;;;;;5.20;2.38;;;;;;;12.10;89.44;101486.81;4936926;29;20048;-68
2023/11/17 00:44:16;;;;;;;6.68;2.00;;;;;;;12.42;87.80;101491.44;4936678;29;20063;-69
2023/11/17 00:46:45;;;;;;;5.07;2.15;;;;;;;12.41;85.92;101481.53;4950972;29;20055;-68
2023/11/17 00:49:13;;;;;;;6.20;2.20;;;;;;;12.23;88.92;101486.03;4945548;28;20055;-68
2023/11/17 00:51:40;;;;;;;5.75;2.35;;;;;;;11.99;90.30;101490.09;4947197;29;20051;-68
2023/11/17 00:54:07;;;;;;;6.20;2.08;;;;;;;12.34;85.49;101487.44;4952119;29;20058;-68
2023/11/17 00:56:35;;;;;;;7.68;2.15;;;;;;;11.43;88.16;101492.13;4937555;29;20050;-67
2023/11/17 00:59:11;;;;;;;7.32;1.90;;;;;;;11.66;86.90;101482.94;4937002;29;20422;-68
2023/11/17 01:01:40;;;;;;;6.13;1.67;;;;;;;12.23;88.20;101480.50;4967708;28;20051;-68
2023/11/17 01:04:08;;;;;;;5.00;2.28;;;;;;;12.21;87.84;101481.91;4921168;29;20048;-68
2023/11/17 01:06:36;;;;;;;6.43;2.40;;;;;;;12.55;85.00;101490.66;4918797;29;20067;-62
2023/11/17 01:09:04;;;;;;;7.85;2.40;;;;;;;12.61;85.95;101489.41;4918350;29;20048;-62
2023/11/17 01:11:31;;;;;;;4.38;1.90;;;;;;;12.33;86.27;101485.81;4938696;29;20498;-63
2023/11/17 01:13:58;;;;;;;4.30;1.70;;;;;;;12.56;83.95;101483.16;4937325;29;20055;-64
2023/11/17 01:16:26;;;;;;;7.40;1.90;;;;;;;12.43;85.61;101473.72;4937130;29;20066;-63
2023/11/17 01:18:53;;;;;;;3.15;1.70;;;;;;;12.44;84.35;101478.16;4936742;29;20536;-62
2023/11/17 01:21:21;;;;;;;6.13;1.77;;;;;;;12.06;86.32;101490.50;4936542;29;20081;-63
2023/11/17 01:23:49;;;;;;;4.10;1.60;;;;;;;12.63;85.06;101498.19;4950908;29;20055;-63
2023/11/17 01:26:16;;;;;;;3.85;1.63;;;;;;;12.34;85.72;101497.69;4967620;28;20066;-63
2023/11/17 01:28:45;;;;;;;4.57;1.60;;;;;;;12.80;84.51;101501.16;4935691;29;20086;-63
2023/11/17 01:31:13;;;;;;;5.47;1.80;;;;;;;12.51;83.29;101505.38;4950596;29;20055;-63
2023/11/17 01:33:40;;;;;;;4.25;1.70;;;;;;;12.25;85.76;101513.34;4937151;28;20067;-61
2023/11/17 01:36:08;;;;;;;6.13;1.70;;;;;;;12.30;85.18;101505.78;4936544;29;20051;-62
2023/11/17 01:38:36;;;;;;;5.10;1.80;;;;;;;12.55;84.21;101493.41;4948710;29;20059;-63
2023/11/17 01:41:17;;;;;;;3.58;1.52;;;;;;;12.72;84.30;101503.81;4933123;29;20048;-62
2023/11/17 01:43:47;;;;;;;7.60;1.77;;;;;;;12.82;83.54;101503.59;4935300;29;20048;-62
2023/11/17 01:46:15;;;;;;;6.85;1.50;;;;;;;12.71;82.59;101507.72;4934482;29;20455;-62
2023/11/17 01:48:43;;;;;;;5.13;1.65;;;;;;;12.91;83.48;101524.69;4929668;29;20051;-63
2023/11/17 01:51:11;;;;;;;5.10;1.60;;;;;;;12.90;82.62;101511.97;4967575;28;20060;-64
2023/11/17 01:53:39;;;;;;;8.23;1.67;;;;;;;12.98;82.58;101500.22;4966033;28;20056;-64
2023/11/17 01:56:07;;;;;;;6.88;1.42;;;;;;;13.11;81.53;101487.50;4950435;28;20060;-64
2023/11/17 01:58:34;;;;;;;5.32;1.75;;;;;;;13.12;81.18;101489.97;4935197;28;20060;-64
2023/11/17 02:01:03;;;;;;;6.97;1.52;;;;;;;13.19;81.51;101509.72;4949181;28;20048;-64
2023/11/17 02:03:31;;;;;;;4.65;1.63;;;;;;;13.01;80.79;101516.19;4935785;29;20059;-63
2023/11/17 02:06:08;;;;;;;4.13;1.67;;;;;;;12.87;82.32;101518.13;4933946;29;20059;-63
2023/11/17 02:08:55;;;;;;;5.88;1.67;;;;;;;12.80;83.07;101511.38;4938326;29;20048;-63
2023/11/17 02:11:45;;;;;;;5.18;1.40;;;;;;;13.02;81.88;101517.03;4958396;28;20050;-63
2023/11/17 02:14:21;;;;;;;3.47;1.30;;;;;;;13.17;81.39;101503.69;4967688;28;20060;-64
2023/11/17 02:16:53;;;;;;;4.72;1.45;;;;;;;13.17;81.22;101503.69;4965609;28;20500;-63
2023/11/17 02:19:33;;;;;;;5.95;1.58;;;;;;;13.23;80.57;101496.88;4949055;29;20048;-63
2023/11/17 02:22:06;;;;;;;4.70;1.48;;;;;;;13.16;80.97;101493.72;4966128;28;20392;-63
2023/11/17 02:25:02;;;;;;;3.38;1.40;;;;;;;13.06;81.34;101490.38;4966051;28;20058;-63
2023/11/17 02:27:40;;;;;;;6.72;1.40;;;;;;;13.24;80.92;101504.06;4950096;29;20054;-63
2023/11/17 02:30:08;;;;;;;5.72;1.50;;;;;;;13.11;80.18;101493.06;4949185;29;20059;-62
2023/11/17 02:32:38;;;;;;;4.35;1.30;;;;;;;13.05;80.69;101497.03;4964962;28;20082;-63
2023/11/17 02:35:08;;;;;;;4.97;1.30;;;;;;;12.96;81.22;101494.16;4950355;28;20055;-62
2023/11/17 02:37:38;;;;;;;6.45;1.70;;;;;;;12.42;80.82;101491.44;4965578;28;20051;-62
2023/11/17 02:40:18;;;;;;;4.78;1.63;;;;;;;12.58;84.73;101491.97;4965371;28;20062;-65
2023/11/17 02:42:51;;;;;;;6.60;1.70;;;;;;;12.78;83.97;101499.84;4949648;29;20052;-63
2023/11/17 02:45:25;;;;;;;3.33;1.40;;;;;;;13.06;81.69;101496.72;4934208;29;20044;-62
2023/11/17 02:47:56;;;;;;;5.25;1.40;;;;;;;13.17;81.10;101495.38;4933176;29;20071;-63
2023/11/17 02:50:31;;;;;;;6.60;1.30;;;;;;;12.90;80.02;101495.41;4938959;29;20059;-63
2023/11/17 02:53:10;;;;;;;4.50;1.35;;;;;;;12.97;81.72;101492.22;4933293;29;20055;-65
2023/11/17 02:55:38;;;;;;;7.18;1.63;;;;;;;12.57;83.71;101501.38;4948176;29;20059;-63
2023/11/17 02:58:06;;;;;;;7.72;1.38;;;;;;;12.48;83.66;101493.78;4949299;29;20055;-62
2023/11/17 03:00:33;;;;;;;4.15;1.48;;;;;;;12.26;85.02;101479.88;4936807;29;20056;-62
2023/11/17 03:03:01;;;;;;;5.80;1.67;;;;;;;12.61;83.97;101475.56;4976752;28;20063;-62
2023/11/17 03:05:29;;;;;;;3.38;1.40;;;;;;;12.73;83.26;101486.09;4944546;29;20044;-62
2023/11/17 03:07:56;;;;;;;7.30;1.80;;;;;;;12.91;82.10;101491.53;4924370;29;20056;-63
2023/11/17 03:10:24;;;;;;;5.10;1.52;;;;;;;12.78;82.80;101489.56;4933537;29;20054;-62
2023/11/17 03:12:55;;;;;;;4.65;1.40;;;;;;;12.97;82.12;101478.41;4945552;29;20054;-63
2023/11/17 03:15:24;;;;;;;4.70;1.40;;;;;;;12.96;80.84;101479.50;4934896;29;20487;-63
2023/11/17 03:17:51;;;;;;;6.72;1.40;;;;;;;12.48;80.42;101478.34;4949083;29;20063;-63
2023/11/17 03:20:19;;;;;;;5.25;1.55;;;;;;;12.99;83.01;101476.16;4934481;29;20058;-62
2023/11/17 03:22:46;;;;;;;3.88;1.38;;;;;;;13.27;80.92;101475.78;4933146;29;20056;-63
2023/11/17 03:25:15;;;;;;;5.95;1.75;;;;;;;13.36;79.80;101470.31;4965320;28;20083;-63
2023/11/17 03:27:44;;;;;;;5.00;1.50;;;;;;;12.82;80.56;101476.78;4934198;29;20070;-62
2023/11/17 03:30:11;;;;;;;5.90;1.45;;;;;;;13.14;81.22;101471.13;4934205;29;20059;-62
2023/11/17 03:32:39;;;;;;;5.65;1.30;;;;;;;13.28;79.68;101474.66;4965267;28;20047;-63
2023/11/17 03:35:06;;;;;;;3.90;1.52;;;;;;;12.95;80.24;101461.31;4965038;28;20412;-63
2023/11/17 03:37:34;;;;;;;3.97;1.40;;;;;;;13.12;81.01;101464.25;4933059;29;20055;-63
2023/11/17 03:40:07;;;;;;;7.95;1.58;;;;;;;13.26;80.21;101456.72;4947816;29;20449;-63
2023/11/17 03:42:34;;;;;;;8.45;1.80;;;;;;;13.25;79.81;101453.13;4933477;29;20059;-63
2023/11/17 03:45:07;;;;;;;6.00;1.65;;;;;;;12.99;80.76;101445.72;4963476;28;20060;-63
2023/11/17 03:47:35;;;;;;;4.20;1.77;;;;;;;13.01;81.27;101443.44;4948987;29;20059;-62
2023/11/17 03:50:03;;;;;;;5.50;1.48;;;;;;;13.12;80.14;101451.25;4948641;29;20796;-62
2023/11/17 03:52:35;;;;;;;4.70;1.67;;;;;;;13.01;80.57;101462.81;4964807;28;20159;-62
2023/11/17 03:55:04;;;;;;;7.75;1.60;;;;;;;12.45;82.33;101472.31;4947350;29;20055;-63
2023/11/17 03:57:31;;;;;;;6.78;2.05;;;;;;;12.61;83.16;101480.28;4964719;28;20086;-63
2023/11/17 04:00:00;;;;;;;6.38;1.83;;;;;;;12.75;82.51;101478.31;4941020;29;20040;-62
2023/11/17 04:02:38;;;;;;;7.82;1.70;;;;;;;12.77;83.17;101471.38;4934965;29;20074;-62
2023/11/17 04:05:05;;;;;;;9.70;1.77;;;;;;;12.91;82.42;101463.88;4952196;28;20052;-62
2023/11/17 04:07:33;;;;;;;8.88;1.60;;;;;;;12.73;82.41;101466.75;4936395;29;20059;-62
2023/11/17 04:10:00;;;;;;;7.55;1.63;;;;;;;12.87;82.21;101468.38;4937391;29;20059;-63
2023/11/17 04:12:28;;;;;;;5.57;1.52;;;;;;;12.71;81.72;101461.53;4950352;29;20044;-62
2023/11/17 04:14:55;;;;;;;6.25;1.77;;;;;;;12.81;82.89;101449.44;4953762;29;20063;-63
2023/11/17 04:17:23;;;;;;;7.28;2.08;;;;;;;12.79;82.67;101447.00;4936841;29;20388;-63
2023/11/17 04:19:50;;;;;;;7.43;2.03;;;;;;;12.97;81.70;101434.94;4936970;29;20571;-62
2023/11/17 04:22:17;;;;;;;8.35;1.90;;;;;;;13.00;81.22;101450.94;4936834;29;20051;-62
2023/11/17 04:24:44;;;;;;;5.32;1.70;;;;;;;13.24;80.91;101472.81;4937639;29;20048;-63
2023/11/17 04:27:12;;;;;;;7.50;1.73;;;;;;;13.10;80.57;101478.41;4937567;29;20047;-62
2023/11/17 04:29:39;;;;;;;6.78;1.60;;;;;;;13.11;80.67;101474.47;4951380;28;20407;-63
2023/11/17 04:32:07;;;;;;;5.57;1.50;;;;;;;13.12;80.93;101476.13;4935386;29;20070;-68
2023/11/17 04:34:34;;;;;;;4.93;1.50;;;;;;;13.16;80.63;101477.13;4936682;29;20057;-68
2023/11/17 04:37:05;;;;;;;7.18;1.50;;;;;;;13.19;80.21;101479.28;4937249;29;20051;-68
2023/11/17 04:39:33;;;;;;;5.90;1.80;;;;;;;12.87;80.91;101496.03;4936003;29;20078;-68
2023/11/17 04:42:00;;;;;;;7.32;1.58;;;;;;;12.96;81.76;101491.41;4936920;29;20063;-68
2023/11/17 04:44:27;;;;;;;7.03;1.77;;;;;;;12.75;81.81;101490.22;4937618;29;20075;-68
2023/11/17 04:46:55;;;;;;;5.85;1.55;;;;;;;13.08;81.56;101483.41;4937087;29;20055;-67
2023/11/17 04:49:23;;;;;;;7.25;1.50;;;;;;;12.96;81.88;101466.50;4946750;29;20075;-67
2023/11/17 04:51:53;;;;;;;6.63;1.40;;;;;;;13.09;81.83;101462.13;4954131;28;20051;-68
2023/11/17 04:54:21;;;;;;;8.20;1.80;;;;;;;13.05;80.55;101459.16;4937451;29;20051;-68
2023/11/17 04:56:49;;;;;;;7.80;1.73;;;;;;;12.86;81.77;101461.22;4937257;29;20048;-69
2023/11/17 04:59:16;;;;;;;7.28;1.95;;;;;;;12.87;82.27;101462.00;4935599;29;20380;-67
2023/11/17 05:01:44;;;;;;;6.25;2.00;;;;;;;12.86;82.43;101466.75;4936933;29;20044;-68
2023/11/17 05:04:13;;;;;;;5.93;1.85;;;;;;;12.86;82.98;101472.28;4962568;28;20403;-68
2023/11/17 05:06:42;;;;;;;5.75;1.88;;;;;;;13.00;81.84;101478.59;4968075;28;20143;-69
2023/11/17 05:09:10;;;;;;;4.75;1.70;;;;;;;13.03;81.30;101475.25;4936573;29;20060;-68
2023/11/17 05:11:41;;;;;;;9.23;1.98;;;;;;;13.04;81.38;101481.59;4967384;28;20511;-68
2023/11/17 05:14:09;;;;;;;4.55;1.70;;;;;;;12.99;81.52;101479.72;4935625;29;20060;-68
2023/11/17 05:16:37;;;;;;;6.57;2.00;;;;;;;12.83;81.31;101483.94;4935736;29;20059;-67
2023/11/17 05:19:05;;;;;;;9.13;2.00;;;;;;;12.81;82.22;101469.63;4936220;29;20067;-68
2023/11/17 05:21:32;;;;;;;6.93;2.00;;;;;;;12.95;82.38;101473.19;4936447;29;20051;-68
2023/11/17 05:24:02;;;;;;;8.65;2.05;;;;;;;13.04;81.87;101474.09;4936635;29;20083;-68
2023/11/17 05:26:30;;;;;;;7.88;1.80;;;;;;;13.11;81.39;101484.75;4966429;28;20059;-68
2023/11/17 05:28:57;;;;;;;6.93;2.15;;;;;;;13.05;81.55;101485.97;4936016;29;20092;-68
2023/11/17 05:31:27;;;;;;;5.63;1.90;;;;;;;13.03;81.41;101479.94;4967508;28;20062;-69
2023/11/17 05:33:55;;;;;;;;;;;;;;;13.19;81.13;101472.94;4936550;29;20058;-68
2023/11/17 05:36:22;;;;;;;10.90;2.33;;;;;;;13.13;80.65;101472.22;4936462;29;20579;-67
2023/11/17 05:38:49;;;;;;;9.50;2.10;;;;;;;12.68;80.52;101475.16;4951003;29;20055;-67
2023/11/17 05:41:18;;;;;;;8.32;1.95;;;;;;;13.00;82.45;101478.59;4936036;29;20056;-66
2023/11/17 05:43:47;;;;;;;5.95;2.08;;;;;;;13.07;81.58;101470.72;4936354;29;20181;-68
2023/11/17 05:46:14;;;;;;;8.35;2.10;;;;;;;12.98;82.10;101472.56;4936775;29;20056;-68
2023/11/17 05:48:42;;;;;;;7.05;2.30;;;;;;;12.33;82.50;101460.97;4935539;29;20062;-69
2023/11/17 05:51:09;;;;;;;6.90;2.10;;;;;;;12.74;83.02;101460.94;4935313;29;20051;-68
2023/11/17 05:53:40;;;;;;;7.30;2.35;;;;;;;13.04;82.04;101465.78;4950477;29;20047;-69
2023/11/17 05:56:07;;;;;;;7.88;2.33;;;;;;;12.97;81.86;101470.91;4934195;29;20081;-69
2023/11/17 05:58:35;;;;;;;9.15;2.33;;;;;;;13.14;80.94;101473.06;4935547;29;20056;-68
2023/11/17 06:01:03;;;;;;;21.23;3.15;;;;;;;13.15;80.96;101474.69;4929580;28;20535;-68
2023/11/17 06:03:30;;;;;;;8.40;2.40;;;;;;;11.96;83.29;101496.22;4935169;29;20056;-68
2023/11/17 06:05:57;;;;;;;9.80;2.08;;;;;;;11.86;84.74;101493.63;4949788;29;20063;-68
2023/11/17 06:08:25;;;;;;;7.90;1.60;;;;;;;12.16;84.28;101487.53;4935465;29;20652;-68
2023/11/17 06:10:52;;;;;;;8.50;2.00;;;;;;;11.54;87.51;101505.44;4935145;29;20572;-68
2023/11/17 06:13:19;;;;;;;7.00;2.38;;;;;;;11.41;87.63;101511.72;4938310;29;20052;-69
2023/11/17 06:15:47;;;;;;;9.15;2.03;;;;;;;10.68;88.40;101507.81;4934114;29;20702;-68
2023/11/17 06:18:16;;;;;;;10.90;1.95;;;;;;;10.94;94.11;101500.84;4935249;29;20059;-68
2023/11/17 06:20:43;;;;;;;8.23;2.47;;;;;;;12.00;90.54;101502.75;4935631;29;20056;-68
2023/11/17 06:23:10;;;;;;;8.13;1.90;;;;;;;11.97;89.21;101495.91;4936434;29;20063;-69
2023/11/17 06:25:37;;;;;;;12.93;2.45;;;;;;;12.57;85.61;101498.63;4935137;29;20408;-68
2023/11/17 06:28:05;;;;;;;8.60;2.03;;;;;;;12.51;83.04;101500.66;4950797;28;20055;-68
2023/11/17 06:30:32;;;;;;;5.13;1.83;;;;;;;12.34;82.32;101490.22;4966203;28;20792;-68
2023/11/17 06:32:59;;;;;;;8.38;2.08;;;;;;;12.36;85.05;101492.69;4936048;29;20047;-69
2023/11/17 06:35:26;;;;;;;7.30;2.08;;;;;;;12.74;82.89;101493.28;4935879;29;20040;-69
2023/11/17 06:37:54;;;;;;;8.55;1.98;;;;;;;13.03;82.32;101493.78;4935820;29;20078;-69
2023/11/17 06:40:22;;;;;;;7.97;2.13;;;;;;;12.42;81.62;101500.56;4936111;29;20044;-69
2023/11/17 06:42:49;;;;;;;12.98;2.35;;;;;;;12.35;82.37;101510.38;4934547;29;20048;-69
2023/11/17 06:45:17;;;;;;;14.07;6.15;;;;;;;12.45;82.67;101515.69;4936200;29;20415;-67
2023/11/17 06:47:44;;;;;;;5.97;2.15;;;;;;;12.31;84.75;101515.69;4936138;29;20054;-67
2023/11/17 06:50:12;;;;;;;9.07;2.05;;;;;;;12.52;83.92;101513.34;4965614;28;20146;-68
2023/11/17 06:52:40;;;;;;;6.13;1.90;;;;;;;12.89;83.43;101502.06;4934710;29;20044;-68
2023/11/17 06:55:09;;;;;;;6.30;1.60;;;;;;;12.57;81.58;101506.91;4929224;29;20055;-70
2023/11/17 06:57:37;;;;;;;8.23;1.80;;;;;;;13.02;81.72;101512.28;4944006;29;20496;-69
2023/11/17 07:00:10;;;;;;;8.68;2.50;;;;;;;13.41;80.48;101506.16;4958110;28;20051;-70
2023/11/17 07:02:37;;;;;;;22.05;6.90;;;;;;;13.36;78.68;101509.88;4933682;29;20484;-69
2023/11/17 07:05:07;;;;;;;10.60;2.80;;;;;;;13.35;78.98;101515.72;4953792;29;20441;-69
2023/11/17 07:07:35;;;;;;;15.15;9.52;;;;;;;12.82;79.64;101521.03;4950927;28;20055;-62
2023/11/17 07:10:02;;;;;;;9.45;2.78;;;;;;;12.35;81.24;101519.50;4940919;29;20052;-63
2023/11/17 07:12:31;;;;;;;13.05;8.20;;;;;;;12.86;82.25;101511.00;4934001;29;20055;-69
2023/11/17 07:14:59;;;;;;;9.15;3.13;;;;;;;13.22;80.42;101528.47;4943663;29;20051;-69
2023/11/17 07:17:26;;;;;;;7.32;2.50;;;;;;;13.42;78.86;101529.94;4938698;29;20060;-69
2023/11/17 07:19:54;;;;;;;12.00;2.38;;;;;;;13.48;78.43;101529.50;4934681;29;20066;-70
2023/11/17 07:22:21;;;;;;;9.43;1.98;;;;;;;13.05;78.24;101531.06;4939083;29;20078;-68
2023/11/17 07:24:50;;;;;;;9.52;2.63;;;;;;;13.19;79.06;101540.16;4936273;29;20054;-69
2023/11/17 07:27:17;;;;;;;7.53;2.72;;;;;;;12.75;77.99;101553.78;4972947;28;20406;-69
2023/11/17 07:29:45;;;;;;;7.63;1.60;;;;;;;12.39;80.01;101552.84;4938879;29;20051;-70
2023/11/17 07:32:13;;;;;;;6.45;1.70;;;;;;;12.87;81.08;101550.50;4952756;29;20062;-70
2023/11/17 07:34:41;;;;;;;5.18;1.55;;;;;;;13.21;78.90;101548.13;4984340;28;20040;-70
2023/11/17 07:37:08;;;;;;;5.97;2.03;;;;;;;13.26;77.28;101540.53;4937182;29;20063;-69
2023/11/17 07:39:35;;;;;;;5.93;1.60;;;;;;;12.68;76.49;101558.06;4952507;28;20576;-65
2023/11/17 07:42:04;;;;;;;7.70;1.90;;;;;;;12.69;81.37;101552.28;4953100;28;20047;-70
2023/11/17 07:44:33;;;;;;;4.63;1.57;;;;;;;13.25;78.78;101544.44;4935482;29;20082;-64
2023/11/17 07:47:03;;;;;;;6.72;1.73;;;;;;;13.24;78.61;101553.88;4935706;29;20059;-64
2023/11/17 07:49:31;;;;;;;12.38;2.05;;;;;;;13.18;77.02;101546.78;4937865;29;20062;-63
2023/11/17 07:51:58;;;;;;;10.52;1.92;;;;;;;13.46;76.87;101545.59;4937648;29;20055;-63
2023/11/17 07:54:25;;;;;;;6.80;2.30;;;;;;;13.23;77.07;101557.75;4937094;29;20475;-63
2023/11/17 07:56:53;;;;;;;9.52;2.10;;;;;;;13.57;75.79;101568.31;4967728;28;20055;-63
2023/11/17 07:59:21;;;;;;;8.40;1.88;;;;;;;13.41;77.00;101576.16;4936587;29;20055;-64
2023/11/17 08:01:49;;;;;;;5.85;2.03;;;;;;;13.27;77.01;101580.09;4936312;29;20088;-62
2023/11/17 08:04:16;;;;;;;9.40;2.35;;;;;;;13.57;76.46;101573.84;4952445;28;20056;-62
2023/11/17 08:06:45;;;;;;;8.10;2.80;;;;;;;13.63;76.17;101580.94;4936503;29;20052;-62
2023/11/17 08:09:13;;;;;;;10.05;3.03;;;;;;;13.68;75.50;101588.28;4967029;28;20071;-62
2023/11/17 08:11:40;;;;;;;8.15;2.35;;;;;;;13.39;75.29;101591.44;4936594;29;20051;-64
2023/11/17 08:14:08;;;;;;;7.35;2.45;;;;;;;13.54;76.06;101600.22;4966562;28;20056;-63
2023/11/17 08:16:36;;;;;;;6.95;2.15;;;;;;;13.45;76.15;101593.78;4950940;28;20060;-63
2023/11/17 08:19:04;;;;;;;7.38;1.80;;;;;;;13.65;75.68;101592.47;4932370;29;20055;-64
2023/11/17 08:21:53;;;;;;;7.75;2.13;;;;;;;12.68;76.76;101605.06;4936120;29;20554;-63
2023/11/17 08:24:22;;;;;;;8.90;3.25;;;;;;;12.23;79.24;101612.25;4951644;28;20044;-63
2023/11/17 08:26:53;;;;;;;9.02;3.05;;;;;;;12.62;78.97;101617.38;4935130;29;20155;-64
2023/11/17 08:29:20;;;;;;;7.75;2.10;;;;;;;12.04;81.34;101625.28;4937019;29;20058;-63
2023/11/17 08:31:50;;;;;;;12.88;3.30;;;;;;;12.28;81.54;101632.34;4967378;28;20116;-63
2023/11/17 08:34:18;;;;;;;7.20;2.15;;;;;;;11.80;81.74;101635.63;4936825;29;20091;-62
2023/11/17 08:36:46;;;;;;;12.50;2.10;;;;;;;10.63;87.23;101631.84;4931857;29;20043;-63
2023/11/17 08:39:25;;;;;;;8.68;1.70;;;;;;;10.56;89.51;101636.88;4941172;29;20577;-63
2023/11/17 08:41:57;;;;;;;6.57;1.58;;;;;;;11.78;90.69;101632.34;4941929;29;20051;-63
2023/11/17 08:44:25;;;;;;;7.90;1.75;;;;;;;12.05;84.02;101633.28;4933680;29;20051;-62
2023/11/17 08:46:53;;;;;;;11.68;2.97;;;;;;;11.32;86.30;101632.94;4939019;29;20062;-62
2023/11/17 08:49:20;;;;;;;7.38;1.80;;;;;;;12.03;86.12;101621.69;4946421;28;20051;-68
2023/11/17 08:51:48;;;;;;;7.00;1.50;;;;;;;12.85;82.27;101610.84;4937046;29;20047;-69
2023/11/17 08:54:17;;;;;;;8.60;2.13;;;;;;;12.97;78.76;101620.25;4935105;29;20051;-68
2023/11/17 08:56:48;;;;;;;6.68;2.13;;;;;;;12.61;82.16;101610.19;4932310;29;20055;-69
2023/11/17 08:59:15;;;;;;;6.20;1.85;;;;;;;12.74;82.39;101614.91;4948709;29;20051;-69
2023/11/17 09:01:43;;;;;;;8.25;1.95;;;;;;;13.35;79.87;101612.56;4941516;29;20047;-68
2023/11/17 09:04:11;;;;;;;8.00;2.03;;;;;;;13.04;79.75;101612.38;4952609;28;20063;-67
2023/11/17 09:06:39;;;;;;;7.97;2.42;;;;;;;13.02;80.82;101616.59;4931762;29;20050;-68
2023/11/17 09:09:10;;;;;;;9.25;2.17;;;;;;;12.96;81.65;101610.31;4968006;28;20066;-68
2023/11/17 09:11:54;;;;;;;10.05;2.17;;;;;;;13.35;79.41;101610.59;4942088;29;20062;-69
2023/11/17 09:14:21;;;;;;;10.70;2.40;;;;;;;12.73;79.39;101627.91;4978347;28;20067;-69
2023/11/17 09:16:50;;;;;;;9.30;2.53;;;;;;;12.38;82.40;101631.31;4935821;29;20580;-69
2023/11/17 09:19:17;;;;;;;11.13;2.53;;;;;;;13.12;80.45;101631.03;4935786;29;20483;-68
2023/11/17 09:21:44;;;;;;;5.68;1.85;;;;;;;12.62;81.59;101620.13;4938730;29;20059;-67
2023/11/17 09:24:12;;;;;;;7.57;2.30;;;;;;;13.17;80.69;101630.94;4968874;28;20050;-68
2023/11/17 09:26:39;;;;;;;7.30;2.22;;;;;;;13.32;79.24;101627.00;4937595;29;20050;-62
2023/11/17 09:29:07;;;;;;;6.38;2.50;;;;;;;13.40;78.03;101621.59;4952293;28;20059;-62
2023/11/17 09:31:34;;;;;;;6.20;1.65;;;;;;;12.12;81.29;101630.94;4938071;29;20059;-63
2023/11/17 09:34:02;;;;;;;15.13;3.10;;;;;;;12.45;83.40;101637.28;4965188;28;20538;-67
2023/11/17 09:36:30;;;;;;;6.70;2.40;;;;;;;12.23;82.22;101642.66;4938242;29;20072;-62
2023/11/17 09:38:57;;;;;;;12.57;2.25;;;;;;;12.33;83.67;101648.81;4938902;29;20070;-62
2023/11/17 09:41:24;;;;;;;12.27;3.70;;;;;;;12.57;84.51;101639.56;4949153;29;20514;-61
2023/11/17 09:43:57;;;;;;;9.85;2.42;;;;;;;12.59;79.51;101645.63;4931494;29;20278;-63
2023/11/17 09:46:27;;;;;;;14.27;2.05;;;;;;;11.90;81.57;101646.50;4936735;29;20054;-63
2023/11/17 09:48:59;;;;;;;14.13;2.08;;;;;;;12.03;86.09;101648.50;4968132;28;20058;-62
2023/11/17 09:51:28;;;;;;;8.50;2.33;;;;;;;12.46;83.61;101653.53;4934209;29;20048;-63
2023/11/17 09:53:57;;;;;;;9.15;1.90;;;;;;;12.26;82.05;101658.59;4947942;29;20542;-63
2023/11/17 09:56:26;;;;;;;12.13;2.13;;;;;;;12.30;84.67;101652.19;4932924;29;20048;-61
2023/11/17 09:58:53;;;;;;;13.02;2.03;;;;;;;12.08;83.06;101656.72;4935936;29;21088;-64
2023/11/17 10:01:27;;;;;;;11.20;1.77;;;;;;;12.93;83.21;101652.41;4934670;28;20511;-62
2023/11/17 10:03:58;;;;;;;9.38;2.30;;;;;;;12.77;80.18;101647.47;4968632;28;20054;-64
2023/11/17 10:06:27;;;;;;;12.13;2.67;;;;;;;12.52;81.36;101659.81;4935661;29;20063;-62
2023/11/17 10:08:55;;;;;;;10.63;2.40;;;;;;;12.52;83.21;101670.06;4933889;29;20063;-63
2023/11/17 10:11:23;;;;;;;10.15;2.35;;;;;;;12.86;81.68;101668.59;4950269;28;20071;-62
2023/11/17 10:13:52;;;;;;;14.15;2.65;;;;;;;12.91;80.47;101670.44;4932653;29;20055;-62
2023/11/17 10:16:20;;;;;;;6.45;1.75;;;;;;;13.25;79.68;101666.16;4935240;29;20074;-63
2023/11/17 10:18:48;;;;;;;10.18;2.20;;;;;;;12.62;80.08;101673.47;4932557;29;20048;-63
2023/11/17 10:21:19;;;;;;;14.38;3.60;;;;;;;13.19;79.17;101667.41;4947456;29;20051;-63
2023/11/17 10:23:47;;;;;;;8.52;2.30;;;;;;;12.89;80.59;101667.97;4939746;29;20054;-62
2023/11/17 10:26:14;;;;;;;5.97;1.88;;;;;;;13.76;77.89;101665.88;4934375;29;20036;-62
2023/11/17 10:28:42;;;;;;;8.93;1.95;;;;;;;13.90;74.22;101658.34;4933844;28;20054;-62
2023/11/17 10:31:11;;;;;;;8.15;2.10;;;;;;;13.10;76.20;101673.94;4934524;29;20675;-63
2023/11/17 10:33:44;;;;;;;13.95;2.33;;;;;;;13.56;77.26;101669.91;4961004;28;20081;-63
2023/11/17 10:36:15;;;;;;;15.38;2.00;;;;;;;13.62;76.13;101667.88;4934857;29;20051;-67
2023/11/17 10:38:49;;;;;;;12.02;2.85;;;;;;;13.56;75.90;101660.81;4963272;28;20056;-62
2023/11/17 10:41:26;;;;;;;9.75;2.83;;;;;;;13.86;75.23;101662.06;4930541;29;20553;-62
2023/11/17 10:43:54;;;;;;;12.27;2.45;;;;;;;13.90;75.36;101657.53;4932519;29;20062;-62
2023/11/17 10:46:23;;;;;;;13.88;2.35;;;;;;;13.06;76.04;101667.38;4934100;29;20058;-62
2023/11/17 10:48:50;;;;;;;9.95;2.72;;;;;;;12.60;79.46;101669.34;4937795;29;20054;-63
2023/11/17 10:51:19;;;;;;;12.73;2.05;;;;;;;13.51;77.74;101664.50;4932998;29;20503;-64
2023/11/17 10:54:08;;;;;;;7.32;1.90;;;;;;;13.91;75.07;101661.97;4933154;29;20547;-64
2023/11/17 10:56:36;;;;;;;8.15;2.10;;;;;;;13.89;74.49;101658.69;4932681;29;20051;-64
2023/11/17 10:59:08;;;;;;;12.18;2.08;;;;;;;13.42;74.86;101668.31;4952626;28;20062;-64
2023/11/17 11:01:40;;;;;;;6.40;1.73;;;;;;;12.97;75.55;101674.75;4933292;29;20586;-63
2023/11/17 11:04:09;;;;;;;13.55;2.60;;;;;;;13.27;75.46;101671.38;4930664;29;20048;-64
2023/11/17 11:06:38;;;;;;;12.23;2.42;;;;;;;12.61;77.33;101679.28;4964897;28;20059;-65
2023/11/17 11:09:08;;;;;;;6.32;2.28;;;;;;;13.15;78.18;101671.91;4931353;29;20063;-63
2023/11/17 11:11:35;;;;;;;;;;;;;;;13.11;76.25;101673.66;4972486;28;20062;-63
2023/11/17 11:14:03;;;;;;;10.82;2.50;;;;;;;13.67;76.54;101676.06;4972369;28;20294;-65
2023/11/17 11:16:32;;;;;;;9.13;2.17;;;;;;;12.56;75.16;101682.97;4951271;28;20051;-65
2023/11/17 11:19:02;;;;;;;13.13;2.60;;;;;;;12.31;78.18;101683.38;4972204;28;20158;-64
2023/11/17 11:21:33;;;;;;;8.35;3.15;;;;;;;13.37;77.97;101682.25;4939592;29;20051;-65
2023/11/17 11:24:01;;;;;;;22.60;5.28;;;;;;;12.87;75.70;101688.75;4968206;28;20051;-65
2023/11/17 11:26:36;;;;;;;11.77;3.83;;;;;;;13.20;77.21;101680.09;4944149;29;20130;-64
2023/11/17 11:29:05;;;;;;;12.65;2.22;;;;;;;13.01;74.62;101684.06;4935687;29;20106;-64
2023/11/17 11:31:34;;;;;;;8.23;2.38;;;;;;;12.74;76.02;101682.09;4935569;29;20055;-64
2023/11/17 11:34:02;;;;;;;10.30;3.83;;;;;;;13.07;76.35;101675.41;4936840;29;20051;-65